createdAt,value
2018-01-02T00:00:34.891Z,0
2018-01-02T00:01:35.459Z,0
2018-01-02T00:02:36.029Z,0
2018-01-02T00:03:36.604Z,0
2018-01-02T00:04:37.181Z,0
2018-01-02T00:05:37.750Z,0
2018-01-02T00:06:38.322Z,0
2018-01-02T00:07:38.891Z,0
2018-01-02T00:08:39.476Z,0
2018-01-02T00:09:40.059Z,0
2018-01-02T00:10:40.629Z,0
2018-01-02T00:11:41.197Z,0
2018-01-02T00:12:41.766Z,0
2018-01-02T00:13:42.335Z,0
2018-01-02T00:14:42.905Z,0
2018-01-02T00:15:43.476Z,0
2018-01-02T00:16:44.045Z,0
2018-01-02T00:17:44.615Z,0
2018-01-02T00:18:45.183Z,0
2018-01-02T00:19:45.754Z,0
2018-01-02T00:20:46.325Z,0
2018-01-02T00:21:46.893Z,0
2018-01-02T00:22:47.463Z,0
2018-01-02T00:23:48.031Z,0
2018-01-02T00:24:48.599Z,0
2018-01-02T00:25:49.166Z,0
2018-01-02T00:26:49.735Z,0
2018-01-02T00:27:50.305Z,0
2018-01-02T00:28:50.873Z,0
2018-01-02T00:29:51.447Z,0
2018-01-02T00:30:52.014Z,0
2018-01-02T00:31:52.597Z,0
2018-01-02T00:32:53.180Z,0
2018-01-02T00:33:53.749Z,0
2018-01-02T00:34:54.332Z,0
2018-01-02T00:35:54.916Z,0
2018-01-02T00:36:55.485Z,0
2018-01-02T00:37:56.057Z,0
2018-01-02T00:38:56.641Z,0
2018-01-02T00:39:57.209Z,0
2018-01-02T00:40:57.777Z,0
2018-01-02T00:41:58.345Z,0
2018-01-02T00:42:58.914Z,0
2018-01-02T00:43:59.485Z,0
2018-01-02T00:45:00.056Z,0
2018-01-02T00:46:00.638Z,0
2018-01-02T00:47:01.218Z,0
2018-01-02T00:48:01.801Z,0
2018-01-02T00:49:02.370Z,0
2018-01-02T00:50:02.955Z,0
2018-01-02T00:51:03.523Z,0
2018-01-02T00:52:04.106Z,0
2018-01-02T00:53:04.675Z,0
2018-01-02T00:54:05.244Z,0
2018-01-02T00:55:05.811Z,0
2018-01-02T00:56:06.381Z,0
2018-01-02T00:57:06.951Z,0
2018-01-02T00:58:07.520Z,0
2018-01-02T00:59:08.089Z,0
2018-01-02T01:00:08.658Z,0
2018-01-02T01:01:09.226Z,0
2018-01-02T01:02:09.796Z,0
2018-01-02T01:03:10.367Z,0
2018-01-02T01:04:10.935Z,0
2018-01-02T01:05:11.504Z,0
2018-01-02T01:06:12.072Z,0
2018-01-02T01:07:12.640Z,0
2018-01-02T01:08:13.210Z,0
2018-01-02T01:09:13.784Z,0
2018-01-02T01:10:14.349Z,0
2018-01-02T01:11:14.919Z,0
2018-01-02T01:12:15.488Z,0
2018-01-02T01:13:16.057Z,0
2018-01-02T01:14:16.627Z,0
2018-01-02T01:15:17.197Z,0
2018-01-02T01:16:17.768Z,0
2018-01-02T01:17:18.339Z,0
2018-01-02T01:18:18.905Z,0
2018-01-02T01:19:19.486Z,0
2018-01-02T01:20:20.069Z,0
2018-01-02T01:21:20.651Z,0
2018-01-02T01:22:21.223Z,0
2018-01-02T01:23:21.791Z,0
2018-01-02T01:24:22.358Z,0
2018-01-02T01:25:22.942Z,0
2018-01-02T01:26:23.513Z,0
2018-01-02T01:27:24.080Z,0
2018-01-02T01:28:24.649Z,0
2018-01-02T01:29:25.235Z,0
2018-01-02T01:30:25.799Z,0
2018-01-02T01:31:26.382Z,0
2018-01-02T01:32:26.951Z,0
2018-01-02T01:33:27.520Z,0
2018-01-02T01:34:28.088Z,0
2018-01-02T01:35:28.657Z,0
2018-01-02T01:36:29.241Z,0
2018-01-02T01:37:29.876Z,0
2018-01-02T01:38:30.387Z,0
2018-01-02T01:39:30.955Z,0
2018-01-02T01:40:31.524Z,0
2018-01-02T01:41:32.093Z,0
2018-01-02T01:42:32.662Z,0
2018-01-02T01:43:33.232Z,0
2018-01-02T01:44:33.801Z,0
2018-01-02T01:45:34.372Z,0
2018-01-02T01:46:34.939Z,0
2018-01-02T01:47:35.509Z,0
2018-01-02T01:48:36.079Z,0
2018-01-02T01:49:36.648Z,0
2018-01-02T01:50:37.217Z,0
2018-01-02T01:51:37.785Z,0
2018-01-02T01:52:38.355Z,0
2018-01-02T01:53:38.922Z,0
2018-01-02T01:54:39.491Z,0
2018-01-02T01:55:40.074Z,0
2018-01-02T01:56:40.642Z,0
2018-01-02T01:57:41.211Z,0
2018-01-02T01:58:41.782Z,0
2018-01-02T01:59:42.349Z,0
2018-01-02T02:00:42.919Z,0
2018-01-02T02:01:43.502Z,0
2018-01-02T02:02:44.070Z,0
2018-01-02T02:03:44.651Z,0
2018-01-02T02:04:45.222Z,0
2018-01-02T02:05:45.790Z,0
2018-01-02T02:06:46.359Z,0
2018-01-02T02:07:46.927Z,0
2018-01-02T02:08:47.494Z,0
2018-01-02T02:09:48.063Z,0
2018-01-02T02:10:48.633Z,0
2018-01-02T02:11:49.203Z,0
2018-01-02T02:12:49.772Z,0
2018-01-02T02:13:50.342Z,0
2018-01-02T02:14:50.910Z,0
2018-01-02T02:15:51.477Z,0
2018-01-02T02:16:52.049Z,0
2018-01-02T02:17:52.629Z,0
2018-01-02T02:18:53.197Z,0
2018-01-02T02:19:53.768Z,0
2018-01-02T02:20:54.339Z,0
2018-01-02T02:21:54.909Z,0
2018-01-02T02:22:55.492Z,0
2018-01-02T02:23:56.062Z,0
2018-01-02T02:24:56.631Z,0
2018-01-02T02:25:57.200Z,0
2018-01-02T02:26:57.770Z,0
2018-01-02T02:27:58.341Z,0
2018-01-02T02:28:58.908Z,0
2018-01-02T02:29:59.480Z,0
2018-01-02T02:31:00.052Z,0
2018-01-02T02:32:00.617Z,0
2018-01-02T02:33:01.190Z,0
2018-01-02T02:34:01.774Z,0
2018-01-02T02:35:02.343Z,0
2018-01-02T02:36:02.913Z,0
2018-01-02T02:37:03.481Z,0
2018-01-02T02:38:04.049Z,0
2018-01-02T02:39:04.618Z,0
2018-01-02T02:40:05.188Z,0
2018-01-02T02:41:05.758Z,0
2018-01-02T02:42:06.326Z,0
2018-01-02T02:43:06.908Z,0
2018-01-02T02:44:07.478Z,0
2018-01-02T02:45:08.045Z,0
2018-01-02T02:46:08.615Z,0
2018-01-02T02:47:09.183Z,0
2018-01-02T02:48:09.753Z,0
2018-01-02T02:49:10.318Z,0
2018-01-02T02:50:10.900Z,0
2018-01-02T02:51:11.468Z,0
2018-01-02T02:52:12.037Z,0
2018-01-02T02:53:12.606Z,0
2018-01-02T02:54:13.175Z,0
2018-01-02T02:55:13.743Z,0
2018-01-02T02:56:14.312Z,0
2018-01-02T02:57:14.898Z,0
2018-01-02T02:58:15.466Z,0
2018-01-02T02:59:16.036Z,0
2018-01-02T03:00:16.603Z,0
2018-01-02T03:01:17.184Z,0
2018-01-02T03:02:17.752Z,0
2018-01-02T03:03:18.320Z,0
2018-01-02T03:04:18.904Z,0
2018-01-02T03:05:19.473Z,0
2018-01-02T03:06:20.042Z,0
2018-01-02T03:07:20.610Z,0
2018-01-02T03:08:21.179Z,0
2018-01-02T03:09:21.747Z,0
2018-01-02T03:10:22.318Z,0
2018-01-02T03:11:22.886Z,0
2018-01-02T03:12:23.456Z,0
2018-01-02T03:13:24.043Z,0
2018-01-02T03:14:24.605Z,0
2018-01-02T03:15:25.187Z,0
2018-01-02T03:16:25.756Z,0
2018-01-02T03:17:26.327Z,0
2018-01-02T03:18:26.908Z,0
2018-01-02T03:19:27.490Z,0
2018-01-02T03:20:28.075Z,0
2018-01-02T03:21:28.645Z,0
2018-01-02T03:22:29.229Z,0
2018-01-02T03:23:29.797Z,0
2018-01-02T03:24:30.365Z,0
2018-01-02T03:25:30.934Z,0
2018-01-02T03:26:31.504Z,0
2018-01-02T03:27:32.074Z,0
2018-01-02T03:28:32.643Z,0
2018-01-02T03:29:33.214Z,0
2018-01-02T03:30:33.783Z,0
2018-01-02T03:31:34.351Z,0
2018-01-02T03:32:34.918Z,0
2018-01-02T03:33:35.500Z,0
2018-01-02T03:34:36.069Z,0
2018-01-02T03:35:36.641Z,0
2018-01-02T03:36:37.210Z,0
2018-01-02T03:37:37.794Z,0
2018-01-02T03:38:38.368Z,0
2018-01-02T03:39:38.934Z,0
2018-01-02T03:40:39.503Z,0
2018-01-02T03:41:40.072Z,0
2018-01-02T03:42:40.640Z,0
2018-01-02T03:43:41.210Z,0
2018-01-02T03:44:41.778Z,0
2018-01-02T03:45:42.348Z,0
2018-01-02T03:46:42.916Z,0
2018-01-02T03:47:43.485Z,0
2018-01-02T03:48:44.052Z,0
2018-01-02T03:49:44.620Z,0
2018-01-02T03:50:45.191Z,0
2018-01-02T03:51:45.760Z,0
2018-01-02T03:52:46.330Z,0
2018-01-02T03:53:46.897Z,0
2018-01-02T03:54:47.465Z,0
2018-01-02T03:55:48.036Z,0
2018-01-02T03:56:48.606Z,0
2018-01-02T03:57:49.176Z,0
2018-01-02T03:58:49.745Z,0
2018-01-02T03:59:50.312Z,0
2018-01-02T04:00:50.884Z,0
2018-01-02T04:01:51.470Z,0
2018-01-02T04:02:52.033Z,0
2018-01-02T04:03:52.603Z,0
2018-01-02T04:04:53.173Z,0
2018-01-02T04:05:53.744Z,0
2018-01-02T04:06:54.312Z,0
2018-01-02T04:07:54.880Z,0
2018-01-02T04:08:55.461Z,0
2018-01-02T04:09:56.044Z,0
2018-01-02T04:10:56.611Z,0
2018-01-02T04:11:57.181Z,0
2018-01-02T04:12:57.749Z,0
2018-01-02T04:13:58.318Z,0
2018-01-02T04:14:58.889Z,0
2018-01-02T04:15:59.473Z,0
2018-01-02T04:17:00.042Z,0
2018-01-02T04:18:00.611Z,0
2018-01-02T04:19:01.192Z,0
2018-01-02T04:20:01.762Z,0
2018-01-02T04:21:02.333Z,0
2018-01-02T04:22:02.902Z,0
2018-01-02T04:23:03.470Z,0
2018-01-02T04:24:04.036Z,0
2018-01-02T04:25:04.606Z,0
2018-01-02T04:26:05.177Z,0
2018-01-02T04:27:05.761Z,0
2018-01-02T04:28:06.330Z,0
2018-01-02T04:29:06.900Z,0
2018-01-02T04:30:07.470Z,0
2018-01-02T04:31:08.039Z,0
2018-01-02T04:32:08.609Z,0
2018-01-02T04:33:09.180Z,0
2018-01-02T04:34:09.764Z,0
2018-01-02T04:35:10.333Z,0
2018-01-02T04:36:10.902Z,0
2018-01-02T04:37:11.472Z,0
2018-01-02T04:38:12.054Z,0
2018-01-02T04:39:12.623Z,0
2018-01-02T04:40:13.191Z,0
2018-01-02T04:41:13.762Z,0
2018-01-02T04:42:14.332Z,0
2018-01-02T04:43:14.903Z,0
2018-01-02T04:44:15.472Z,0
2018-01-02T04:45:16.041Z,0
2018-01-02T04:46:16.671Z,0
2018-01-02T04:47:17.191Z,0
2018-01-02T04:48:17.759Z,0
2018-01-02T04:49:18.330Z,0
2018-01-02T04:50:18.900Z,0
2018-01-02T04:51:19.504Z,0
2018-01-02T04:52:20.039Z,0
2018-01-02T04:53:20.608Z,0
2018-01-02T04:54:21.180Z,0
2018-01-02T04:55:21.750Z,0
2018-01-02T04:56:22.323Z,0
2018-01-02T04:57:22.893Z,0
2018-01-02T04:58:23.458Z,0
2018-01-02T04:59:24.029Z,0
2018-01-02T05:00:24.615Z,0
2018-01-02T05:01:25.184Z,0
2018-01-02T05:02:25.755Z,0
2018-01-02T05:03:26.323Z,0
2018-01-02T05:04:26.893Z,0
2018-01-02T05:05:27.461Z,0
2018-01-02T05:06:28.031Z,0
2018-01-02T05:07:28.601Z,0
2018-01-02T05:08:29.169Z,0
2018-01-02T05:09:29.755Z,0
2018-01-02T05:10:30.325Z,0
2018-01-02T05:11:30.894Z,0
2018-01-02T05:12:31.478Z,0
2018-01-02T05:13:32.048Z,0
2018-01-02T05:14:32.630Z,0
2018-01-02T05:15:33.213Z,0
2018-01-02T05:16:33.782Z,0
2018-01-02T05:17:34.351Z,0
2018-01-02T05:18:34.919Z,0
2018-01-02T05:19:35.488Z,0
2018-01-02T05:20:36.058Z,0
2018-01-02T05:21:36.641Z,0
2018-01-02T05:22:37.210Z,0
2018-01-02T05:23:37.780Z,0
2018-01-02T05:24:38.349Z,0
2018-01-02T05:25:38.918Z,0
2018-01-02T05:26:39.487Z,0
2018-01-02T05:27:40.056Z,0
2018-01-02T05:28:40.627Z,0
2018-01-02T05:29:41.196Z,0
2018-01-02T05:30:41.766Z,0
2018-01-02T05:31:42.336Z,0
2018-01-02T05:32:42.903Z,0
2018-01-02T05:33:43.473Z,0
2018-01-02T05:34:44.043Z,0
2018-01-02T05:35:44.615Z,0
2018-01-02T05:36:45.183Z,0
2018-01-02T05:37:45.752Z,0
2018-01-02T05:38:46.324Z,0
2018-01-02T05:39:46.894Z,0
2018-01-02T05:40:47.466Z,0
2018-01-02T05:41:48.049Z,0
2018-01-02T05:42:48.619Z,0
2018-01-02T05:43:49.189Z,0
2018-01-02T05:44:49.760Z,0
2018-01-02T05:45:50.330Z,0
2018-01-02T05:46:50.901Z,0
2018-01-02T05:47:51.484Z,0
2018-01-02T05:48:52.053Z,0
2018-01-02T05:49:52.621Z,0
2018-01-02T05:50:53.189Z,0
2018-01-02T05:51:53.758Z,0
2018-01-02T05:52:54.328Z,0
2018-01-02T05:53:54.898Z,0
2018-01-02T05:54:55.468Z,0
2018-01-02T05:55:56.037Z,0
2018-01-02T05:56:56.606Z,0
2018-01-02T05:57:57.175Z,0
2018-01-02T05:58:57.745Z,0
2018-01-02T05:59:58.316Z,0
2018-01-02T06:00:58.885Z,0
2018-01-02T06:01:59.454Z,0
2018-01-02T06:03:00.031Z,0
2018-01-02T06:04:00.607Z,0
2018-01-02T06:05:01.176Z,0
2018-01-02T06:06:01.746Z,0
2018-01-02T06:07:02.315Z,0
2018-01-02T06:08:02.885Z,0
2018-01-02T06:09:03.453Z,0
2018-01-02T06:10:04.029Z,0
2018-01-02T06:11:04.591Z,0
2018-01-02T06:12:05.160Z,0
2018-01-02T06:13:05.731Z,0
2018-01-02T06:14:06.316Z,0
2018-01-02T06:15:06.885Z,0
2018-01-02T06:16:07.470Z,0
2018-01-02T06:17:08.041Z,0
2018-01-02T06:18:08.610Z,0
2018-01-02T06:19:09.178Z,0
2018-01-02T06:20:09.746Z,0
2018-01-02T06:21:10.320Z,0
2018-01-02T06:22:10.887Z,0
2018-01-02T06:23:11.456Z,0
2018-01-02T06:24:12.030Z,0
2018-01-02T06:25:12.594Z,0
2018-01-02T06:26:13.163Z,0
2018-01-02T06:27:13.733Z,0
2018-01-02T06:28:14.303Z,0
2018-01-02T06:29:14.873Z,0
2018-01-02T06:30:15.441Z,0
2018-01-02T06:31:16.022Z,0
2018-01-02T06:32:16.593Z,0
2018-01-02T06:33:17.160Z,0
2018-01-02T06:34:17.730Z,0
2018-01-02T06:35:18.299Z,0
2018-01-02T06:36:18.871Z,0
2018-01-02T06:37:19.440Z,0
2018-01-02T06:38:20.025Z,0
2018-01-02T06:39:20.594Z,0
2018-01-02T06:40:21.163Z,0
2018-01-02T06:41:21.732Z,0
2018-01-02T06:42:22.302Z,0
2018-01-02T06:43:22.874Z,0
2018-01-02T06:44:23.444Z,0
2018-01-02T06:45:24.015Z,0
2018-01-02T06:46:24.584Z,0
2018-01-02T06:47:25.153Z,0
2018-01-02T06:48:25.724Z,0
2018-01-02T06:49:26.296Z,0
2018-01-02T06:50:26.865Z,0
2018-01-02T06:51:27.435Z,0
2018-01-02T06:52:28.003Z,0
2018-01-02T06:53:28.572Z,0
2018-01-02T06:54:29.143Z,0
2018-01-02T06:55:29.714Z,0
2018-01-02T06:56:30.299Z,0
2018-01-02T06:57:30.867Z,0
2018-01-02T06:58:31.439Z,0
2018-01-02T06:59:32.026Z,0
2018-01-02T07:00:32.591Z,0
2018-01-02T07:01:33.176Z,0
2018-01-02T07:02:33.745Z,0
2018-01-02T07:03:34.316Z,0
2018-01-02T07:04:34.896Z,0
2018-01-02T07:05:35.465Z,0
2018-01-02T07:06:36.034Z,0
2018-01-02T07:07:36.605Z,0
2018-01-02T07:08:37.177Z,0
2018-01-02T07:09:37.746Z,0
2018-01-02T07:10:38.315Z,0
2018-01-02T07:11:38.884Z,0
2018-01-02T07:12:39.470Z,0
2018-01-02T07:13:40.038Z,0
2018-01-02T07:14:40.607Z,0
2018-01-02T07:15:41.177Z,0
2018-01-02T07:16:41.748Z,0
2018-01-02T07:17:42.317Z,0
2018-01-02T07:18:42.902Z,0
2018-01-02T07:19:43.472Z,0
2018-01-02T07:20:44.043Z,0
2018-01-02T07:21:44.628Z,0
2018-01-02T07:22:45.197Z,0
2018-01-02T07:23:45.783Z,0
2018-01-02T07:24:46.363Z,0
2018-01-02T07:25:46.946Z,0
2018-01-02T07:26:47.514Z,4
2018-01-02T07:27:48.083Z,0
2018-01-02T07:28:48.653Z,4
2018-01-02T07:29:49.226Z,0
2018-01-02T07:30:49.806Z,0
2018-01-02T07:31:50.376Z,0
2018-01-02T07:32:50.945Z,0
2018-01-02T07:33:51.520Z,0
2018-01-02T07:34:52.102Z,4
2018-01-02T07:35:52.671Z,0
2018-01-02T07:36:53.241Z,0
2018-01-02T07:37:53.811Z,4
2018-01-02T07:38:54.378Z,4
2018-01-02T07:39:54.946Z,0
2018-01-02T07:40:55.516Z,4
2018-01-02T07:41:56.087Z,0
2018-01-02T07:42:56.659Z,8
2018-01-02T07:43:57.227Z,8
2018-01-02T07:44:57.794Z,8
2018-01-02T07:45:58.363Z,8
2018-01-02T07:46:58.932Z,8
2018-01-02T07:47:59.501Z,8
2018-01-02T07:49:00.075Z,12
2018-01-02T07:50:00.659Z,12
2018-01-02T07:51:01.228Z,16
2018-01-02T07:52:01.799Z,16
2018-01-02T07:53:02.384Z,16
2018-01-02T07:54:02.955Z,20
2018-01-02T07:55:03.525Z,16
2018-01-02T07:56:04.109Z,16
2018-01-02T07:57:04.683Z,16
2018-01-02T07:58:05.268Z,16
2018-01-02T07:59:05.838Z,16
2018-01-02T08:00:06.409Z,20
2018-01-02T08:01:06.979Z,28
2018-01-02T08:02:07.549Z,32
2018-01-02T08:03:08.122Z,32
2018-01-02T08:04:08.690Z,32
2018-01-02T08:05:09.261Z,36
2018-01-02T08:06:09.832Z,36
2018-01-02T08:07:10.402Z,40
2018-01-02T08:08:10.974Z,44
2018-01-02T08:09:11.543Z,48
2018-01-02T08:10:12.115Z,48
2018-01-02T08:11:12.685Z,44
2018-01-02T08:12:13.254Z,52
2018-01-02T08:13:13.828Z,52
2018-01-02T08:14:14.414Z,52
2018-01-02T08:15:14.985Z,56
2018-01-02T08:16:15.555Z,56
2018-01-02T08:17:16.126Z,56
2018-01-02T08:18:16.695Z,52
2018-01-02T08:19:17.267Z,48
2018-01-02T08:20:17.836Z,48
2018-01-02T08:21:18.407Z,52
2018-01-02T08:22:18.977Z,48
2018-01-02T08:23:19.547Z,44
2018-01-02T08:24:20.119Z,52
2018-01-02T08:25:20.689Z,52
2018-01-02T08:26:21.259Z,44
2018-01-02T08:27:21.829Z,36
2018-01-02T08:28:22.400Z,24
2018-01-02T08:29:22.972Z,24
2018-01-02T08:30:23.542Z,20
2018-01-02T08:31:24.113Z,20
2018-01-02T08:32:24.684Z,24
2018-01-02T08:33:25.254Z,28
2018-01-02T08:34:25.826Z,28
2018-01-02T08:35:26.395Z,36
2018-01-02T08:36:26.966Z,40
2018-01-02T08:37:27.538Z,48
2018-01-02T08:38:28.109Z,60
2018-01-02T08:39:28.678Z,64
2018-01-02T08:40:29.248Z,60
2018-01-02T08:41:29.819Z,56
2018-01-02T08:42:30.390Z,60
2018-01-02T08:43:30.959Z,52
2018-01-02T08:44:31.530Z,44
2018-01-02T08:45:32.099Z,36
2018-01-02T08:46:32.672Z,40
2018-01-02T08:47:33.244Z,40
2018-01-02T08:48:33.814Z,48
2018-01-02T08:49:34.384Z,56
2018-01-02T08:50:34.970Z,76
2018-01-02T08:51:35.540Z,88
2018-01-02T08:52:36.112Z,84
2018-01-02T08:53:36.685Z,76
2018-01-02T08:54:37.260Z,76
2018-01-02T08:55:37.824Z,76
2018-01-02T08:56:38.398Z,84
2018-01-02T08:57:39.031Z,96
2018-01-02T08:58:39.556Z,104
2018-01-02T08:59:40.129Z,112
2018-01-02T09:00:40.701Z,108
2018-01-02T09:01:41.274Z,104
2018-01-02T09:02:41.851Z,96
2018-01-02T09:03:42.416Z,92
2018-01-02T09:04:42.986Z,88
2018-01-02T09:05:43.557Z,80
2018-01-02T09:06:44.126Z,80
2018-01-02T09:07:44.697Z,76
2018-01-02T09:08:45.280Z,88
2018-01-02T09:09:45.852Z,104
2018-01-02T09:10:46.424Z,112
2018-01-02T09:11:46.997Z,124
2018-01-02T09:12:47.567Z,128
2018-01-02T09:13:48.139Z,136
2018-01-02T09:14:48.711Z,140
2018-01-02T09:15:49.284Z,140
2018-01-02T09:16:49.871Z,136
2018-01-02T09:17:50.444Z,128
2018-01-02T09:18:51.016Z,132
2018-01-02T09:19:51.589Z,124
2018-01-02T09:20:52.161Z,108
2018-01-02T09:21:52.732Z,96
2018-01-02T09:22:53.310Z,84
2018-01-02T09:23:53.883Z,76
2018-01-02T09:24:54.454Z,80
2018-01-02T09:25:55.025Z,76
2018-01-02T09:26:55.597Z,76
2018-01-02T09:27:56.169Z,84
2018-01-02T09:28:56.741Z,104
2018-01-02T09:29:57.314Z,116
2018-01-02T09:30:57.886Z,116
2018-01-02T09:31:58.472Z,124
2018-01-02T09:32:59.044Z,128
2018-01-02T09:33:59.616Z,132
2018-01-02T09:35:00.188Z,136
2018-01-02T09:36:00.774Z,120
2018-01-02T09:37:01.347Z,112
2018-01-02T09:38:01.932Z,92
2018-01-02T09:39:02.502Z,76
2018-01-02T09:40:03.071Z,68
2018-01-02T09:41:03.646Z,56
2018-01-02T09:42:04.212Z,48
2018-01-02T09:43:04.796Z,44
2018-01-02T09:44:05.371Z,48
2018-01-02T09:45:05.971Z,52
2018-01-02T09:46:06.510Z,60
2018-01-02T09:47:07.080Z,72
2018-01-02T09:48:07.652Z,84
2018-01-02T09:49:08.226Z,100
2018-01-02T09:50:08.798Z,120
2018-01-02T09:51:09.371Z,140
2018-01-02T09:52:09.944Z,160
2018-01-02T09:53:10.516Z,164
2018-01-02T09:54:11.088Z,156
2018-01-02T09:55:11.660Z,144
2018-01-02T09:56:12.248Z,148
2018-01-02T09:57:12.820Z,148
2018-01-02T09:58:13.390Z,152
2018-01-02T09:59:13.962Z,148
2018-01-02T10:00:14.534Z,156
2018-01-02T10:01:15.109Z,164
2018-01-02T10:02:15.680Z,164
2018-01-02T10:03:16.251Z,168
2018-01-02T10:04:16.825Z,172
2018-01-02T10:05:17.397Z,176
2018-01-02T10:06:17.968Z,176
2018-01-02T10:07:18.541Z,176
2018-01-02T10:08:19.113Z,176
2018-01-02T10:09:19.684Z,180
2018-01-02T10:10:20.257Z,180
2018-01-02T10:11:20.831Z,180
2018-01-02T10:12:21.401Z,176
2018-01-02T10:13:21.974Z,172
2018-01-02T10:14:22.548Z,168
2018-01-02T10:15:23.120Z,164
2018-01-02T10:16:23.692Z,160
2018-01-02T10:17:24.266Z,152
2018-01-02T10:18:24.853Z,152
2018-01-02T10:19:25.425Z,156
2018-01-02T10:20:25.996Z,160
2018-01-02T10:21:26.566Z,160
2018-01-02T10:22:27.140Z,160
2018-01-02T10:23:27.727Z,164
2018-01-02T10:24:28.298Z,172
2018-01-02T10:25:28.871Z,180
2018-01-02T10:26:29.444Z,188
2018-01-02T10:27:30.030Z,192
2018-01-02T10:28:30.607Z,200
2018-01-02T10:29:31.175Z,212
2018-01-02T10:30:31.748Z,220
2018-01-02T10:31:32.320Z,224
2018-01-02T10:32:32.895Z,232
2018-01-02T10:33:33.468Z,240
2018-01-02T10:34:34.041Z,244
2018-01-02T10:35:34.614Z,252
2018-01-02T10:36:35.187Z,248
2018-01-02T10:37:35.759Z,252
2018-01-02T10:38:36.334Z,248
2018-01-02T10:39:36.907Z,248
2018-01-02T10:40:37.478Z,248
2018-01-02T10:41:38.055Z,248
2018-01-02T10:42:38.627Z,244
2018-01-02T10:43:39.202Z,240
2018-01-02T10:44:39.793Z,236
2018-01-02T10:45:40.374Z,232
2018-01-02T10:46:40.948Z,232
2018-01-02T10:47:41.519Z,228
2018-01-02T10:48:42.091Z,220
2018-01-02T10:49:42.677Z,212
2018-01-02T10:50:43.249Z,208
2018-01-02T10:51:43.822Z,200
2018-01-02T10:52:44.396Z,196
2018-01-02T10:53:44.967Z,188
2018-01-02T10:54:45.541Z,184
2018-01-02T10:55:46.114Z,184
2018-01-02T10:56:46.702Z,184
2018-01-02T10:57:47.272Z,192
2018-01-02T10:58:47.843Z,184
2018-01-02T10:59:48.416Z,180
2018-01-02T11:00:49.006Z,172
2018-01-02T11:01:49.620Z,176
2018-01-02T11:02:50.163Z,176
2018-01-02T11:03:50.737Z,176
2018-01-02T11:04:51.313Z,172
2018-01-02T11:05:51.881Z,184
2018-01-02T11:06:52.455Z,196
2018-01-02T11:07:53.042Z,196
2018-01-02T11:08:53.617Z,196
2018-01-02T11:09:54.227Z,196
2018-01-02T11:10:54.761Z,188
2018-01-02T11:11:55.332Z,200
2018-01-02T11:12:55.902Z,188
2018-01-02T11:13:56.475Z,188
2018-01-02T11:14:57.048Z,176
2018-01-02T11:15:57.619Z,184
2018-01-02T11:16:58.189Z,184
2018-01-02T11:17:58.763Z,184
2018-01-02T11:18:59.353Z,188
2018-01-02T11:19:59.908Z,196
2018-01-02T11:21:00.480Z,200
2018-01-02T11:22:01.065Z,204
2018-01-02T11:23:01.638Z,200
2018-01-02T11:24:02.209Z,200
2018-01-02T11:25:02.781Z,204
2018-01-02T11:26:03.354Z,204
2018-01-02T11:27:03.925Z,200
2018-01-02T11:28:04.511Z,196
2018-01-02T11:29:05.083Z,196
2018-01-02T11:30:05.655Z,204
2018-01-02T11:31:06.227Z,212
2018-01-02T11:32:06.801Z,204
2018-01-02T11:33:07.371Z,208
2018-01-02T11:34:07.943Z,204
2018-01-02T11:35:08.515Z,196
2018-01-02T11:36:09.087Z,184
2018-01-02T11:37:09.661Z,176
2018-01-02T11:38:10.232Z,168
2018-01-02T11:39:10.805Z,180
2018-01-02T11:40:11.381Z,180
2018-01-02T11:41:11.950Z,184
2018-01-02T11:42:12.521Z,196
2018-01-02T11:43:13.098Z,200
2018-01-02T11:44:13.667Z,200
2018-01-02T11:45:14.239Z,196
2018-01-02T11:46:14.810Z,192
2018-01-02T11:47:15.383Z,180
2018-01-02T11:48:15.955Z,160
2018-01-02T11:49:16.527Z,152
2018-01-02T11:50:17.113Z,148
2018-01-02T11:51:17.688Z,148
2018-01-02T11:52:18.258Z,148
2018-01-02T11:53:18.837Z,152
2018-01-02T11:54:19.417Z,144
2018-01-02T11:55:19.989Z,144
2018-01-02T11:56:20.561Z,136
2018-01-02T11:57:21.134Z,136
2018-01-02T11:58:21.708Z,140
2018-01-02T11:59:22.279Z,144
2018-01-02T12:00:22.853Z,144
2018-01-02T12:01:23.423Z,144
2018-01-02T12:02:23.994Z,144
2018-01-02T12:03:24.565Z,148
2018-01-02T12:04:25.150Z,148
2018-01-02T12:05:25.721Z,156
2018-01-02T12:06:26.295Z,156
2018-01-02T12:07:26.866Z,164
2018-01-02T12:08:27.440Z,160
2018-01-02T12:09:28.011Z,156
2018-01-02T12:10:28.581Z,156
2018-01-02T12:11:29.156Z,148
2018-01-02T12:12:29.726Z,144
2018-01-02T12:13:30.312Z,144
2018-01-02T12:14:30.883Z,140
2018-01-02T12:15:31.456Z,132
2018-01-02T12:16:32.030Z,132
2018-01-02T12:17:32.602Z,128
2018-01-02T12:18:33.189Z,128
2018-01-02T12:19:33.761Z,116
2018-01-02T12:20:34.335Z,92
2018-01-02T12:21:34.906Z,80
2018-01-02T12:22:35.475Z,68
2018-01-02T12:23:36.045Z,72
2018-01-02T12:24:36.618Z,72
2018-01-02T12:25:37.189Z,76
2018-01-02T12:26:37.758Z,72
2018-01-02T12:27:38.329Z,84
2018-01-02T12:28:38.903Z,96
2018-01-02T12:29:39.473Z,104
2018-01-02T12:30:40.046Z,120
2018-01-02T12:31:40.617Z,120
2018-01-02T12:32:41.188Z,116
2018-01-02T12:33:41.762Z,132
2018-01-02T12:34:42.334Z,156
2018-01-02T12:35:42.906Z,164
2018-01-02T12:36:43.482Z,176
2018-01-02T12:37:44.054Z,168
2018-01-02T12:38:44.643Z,160
2018-01-02T12:39:45.214Z,152
2018-01-02T12:40:45.790Z,140
2018-01-02T12:41:46.376Z,136
2018-01-02T12:42:46.947Z,128
2018-01-02T12:43:47.521Z,112
2018-01-02T12:44:48.094Z,96
2018-01-02T12:45:48.660Z,88
2018-01-02T12:46:49.232Z,92
2018-01-02T12:47:49.802Z,96
2018-01-02T12:48:50.372Z,96
2018-01-02T12:49:50.941Z,92
2018-01-02T12:50:51.512Z,76
2018-01-02T12:51:52.084Z,76
2018-01-02T12:52:52.656Z,72
2018-01-02T12:53:53.227Z,68
2018-01-02T12:54:53.794Z,72
2018-01-02T12:55:54.415Z,76
2018-01-02T12:56:54.936Z,76
2018-01-02T12:57:55.506Z,72
2018-01-02T12:58:56.077Z,76
2018-01-02T12:59:56.661Z,96
2018-01-02T13:00:57.246Z,100
2018-01-02T13:01:57.814Z,96
2018-01-02T13:02:58.384Z,96
2018-01-02T13:03:58.955Z,108
2018-01-02T13:04:59.526Z,120
2018-01-02T13:06:00.099Z,140
2018-01-02T13:07:00.669Z,140
2018-01-02T13:08:01.255Z,144
2018-01-02T13:09:01.825Z,140
2018-01-02T13:10:02.396Z,148
2018-01-02T13:11:02.967Z,148
2018-01-02T13:12:03.540Z,156
2018-01-02T13:13:04.110Z,184
2018-01-02T13:14:04.695Z,196
2018-01-02T13:15:05.268Z,180
2018-01-02T13:16:05.838Z,152
2018-01-02T13:17:06.409Z,120
2018-01-02T13:18:06.996Z,116
2018-01-02T13:19:07.567Z,128
2018-01-02T13:20:08.137Z,128
2018-01-02T13:21:08.708Z,116
2018-01-02T13:22:09.278Z,100
2018-01-02T13:23:09.850Z,88
2018-01-02T13:24:10.422Z,88
2018-01-02T13:25:10.993Z,88
2018-01-02T13:26:11.564Z,100
2018-01-02T13:27:12.149Z,96
2018-01-02T13:28:12.720Z,80
2018-01-02T13:29:13.293Z,76
2018-01-02T13:30:13.864Z,76
2018-01-02T13:31:14.435Z,84
2018-01-02T13:32:15.007Z,84
2018-01-02T13:33:15.578Z,88
2018-01-02T13:34:16.150Z,96
2018-01-02T13:35:16.729Z,96
2018-01-02T13:36:17.293Z,88
2018-01-02T13:37:17.864Z,92
2018-01-02T13:38:18.437Z,96
2018-01-02T13:39:19.010Z,104
2018-01-02T13:40:19.581Z,116
2018-01-02T13:41:20.153Z,116
2018-01-02T13:42:20.738Z,116
2018-01-02T13:43:21.310Z,100
2018-01-02T13:44:21.882Z,92
2018-01-02T13:45:22.453Z,88
2018-01-02T13:46:23.023Z,88
2018-01-02T13:47:23.595Z,96
2018-01-02T13:48:24.166Z,108
2018-01-02T13:49:24.739Z,120
2018-01-02T13:50:25.311Z,128
2018-01-02T13:51:25.905Z,132
2018-01-02T13:52:26.469Z,136
2018-01-02T13:53:27.041Z,140
2018-01-02T13:54:27.612Z,148
2018-01-02T13:55:28.200Z,152
2018-01-02T13:56:28.786Z,164
2018-01-02T13:57:29.357Z,172
2018-01-02T13:58:29.928Z,176
2018-01-02T13:59:30.501Z,172
2018-01-02T14:00:31.074Z,180
2018-01-02T14:01:31.646Z,164
2018-01-02T14:02:32.218Z,148
2018-01-02T14:03:32.792Z,136
2018-01-02T14:04:33.363Z,120
2018-01-02T14:05:33.934Z,112
2018-01-02T14:06:34.508Z,104
2018-01-02T14:07:35.080Z,104
2018-01-02T14:08:35.652Z,108
2018-01-02T14:09:36.223Z,104
2018-01-02T14:10:36.812Z,100
2018-01-02T14:11:37.380Z,96
2018-01-02T14:12:37.952Z,96
2018-01-02T14:13:38.523Z,96
2018-01-02T14:14:39.094Z,104
2018-01-02T14:15:39.666Z,108
2018-01-02T14:16:40.237Z,120
2018-01-02T14:17:40.811Z,116
2018-01-02T14:18:41.382Z,112
2018-01-02T14:19:41.955Z,108
2018-01-02T14:20:42.540Z,104
2018-01-02T14:21:43.113Z,100
2018-01-02T14:22:43.684Z,96
2018-01-02T14:23:44.254Z,88
2018-01-02T14:24:44.824Z,80
2018-01-02T14:25:45.451Z,68
2018-01-02T14:26:45.966Z,68
2018-01-02T14:27:46.537Z,64
2018-01-02T14:28:47.109Z,68
2018-01-02T14:29:47.697Z,80
2018-01-02T14:30:48.268Z,92
2018-01-02T14:31:48.839Z,96